Time;durP1;ratioP1;P1;durP2;ratioP2;P2;SDS_P1;SDS_P2;PMS_P1;PMS_P2;Temp;Humidity;BMP_temperature;BMP_pressure;BME280_temperature;BME280_humidity;BME280_pressure;Samples;Min_cycle;Max_cycle;Signal;HPM_P1;HPM_P2
2022/06/11 00:02:04;;;;;;;15.90;8.63;;;;;;;34.18;21.16;94508.09;5056478;28;20229;-65
2022/06/11 00:04:48;;;;;;;17.17;8.60;;;;;;;34.18;20.93;94502.28;5047974;28;20268;-65
2022/06/11 00:07:33;;;;;;;14.60;9.40;;;;;;;34.11;20.91;94498.69;5052361;28;20280;-65
2022/06/11 00:10:18;;;;;;;14.70;9.67;;;;;;;34.22;20.80;94503.00;5051572;28;20205;-65
2022/06/11 00:13:03;;;;;;;15.43;8.53;;;;;;;34.06;20.78;94503.84;5048850;28;20228;-65
2022/06/11 00:15:46;;;;;;;15.53;8.13;;;;;;;34.04;20.84;94500.94;5051289;28;20209;-66
2022/06/11 00:18:32;;;;;;;16.60;7.57;;;;;;;33.94;20.81;94503.22;5048666;28;20678;-66
2022/06/11 00:21:16;;;;;;;12.17;7.67;;;;;;;33.83;21.41;94502.56;5057706;28;20196;-65
2022/06/11 00:24:00;;;;;;;12.03;7.43;;;;;;;34.09;20.66;94501.63;5054318;28;20835;-66
2022/06/11 00:26:46;;;;;;;10.77;7.17;;;;;;;34.09;20.54;94502.34;5052738;28;20284;-66
2022/06/11 00:29:33;;;;;;;11.90;8.37;;;;;;;33.76;21.28;94504.09;5054400;28;20209;-66
2022/06/11 00:32:18;;;;;;;8.10;7.20;;;;;;;33.90;20.94;94503.97;5052345;28;20221;-66
2022/06/11 00:35:03;;;;;;;10.43;6.73;;;;;;;33.66;21.00;94499.03;5052191;28;20204;-65
2022/06/11 00:37:48;;;;;;;15.03;6.70;;;;;;;33.67;21.22;94506.31;5057362;28;20843;-65
2022/06/11 00:40:35;;;;;;;10.20;6.37;;;;;;;33.51;21.19;94508.59;5059261;28;20219;-66
2022/06/11 00:43:21;;;;;;;10.57;6.90;;;;;;;33.29;21.31;94504.38;5048581;28;20275;-65
2022/06/11 00:46:27;;;;;;;14.30;7.63;;;;;;;33.23;21.51;94501.50;5060747;28;20200;-66
2022/06/11 00:49:18;;;;;;;13.07;7.40;;;;;;;33.13;21.31;94498.63;5055014;28;20227;-66
2022/06/11 00:52:24;;;;;;;11.07;7.63;;;;;;;33.30;20.83;94497.09;5055196;28;20345;-65
2022/06/11 00:55:24;;;;;;;14.17;7.20;;;;;;;33.20;20.75;94500.06;5054183;28;20202;-66
2022/06/11 00:58:23;;;;;;;15.57;7.40;;;;;;;33.01;21.47;94492.16;5048795;28;20658;-66
2022/06/11 01:01:08;;;;;;;11.47;7.07;;;;;;;32.87;21.53;94490.03;5052239;28;20248;-66
2022/06/11 01:03:54;;;;;;;14.60;8.27;;;;;;;32.88;21.63;94489.31;5047673;28;20221;-66
2022/06/11 01:06:51;;;;;;;10.20;7.63;;;;;;;32.84;21.38;94488.59;5056748;28;20777;-66
2022/06/11 01:09:35;;;;;;;9.87;6.87;;;;;;;32.72;21.45;94485.75;5050955;28;20202;-66
2022/06/11 01:12:40;;;;;;;12.17;7.57;;;;;;;32.74;21.67;94482.84;5055482;28;20541;-65
2022/06/11 01:15:30;;;;;;;11.60;7.20;;;;;;;32.80;21.52;94482.81;5050732;28;20295;-65
2022/06/11 01:18:27;;;;;;;12.37;6.67;;;;;;;32.94;21.61;94476.94;5053872;28;20201;-65
2022/06/11 01:21:20;;;;;;;8.17;6.57;;;;;;;33.18;20.97;94471.03;5062001;28;20259;-65
2022/06/11 01:24:37;;;;;;;11.80;7.67;;;;;;;33.22;21.11;94476.81;5054360;28;20229;-65
2022/06/11 01:27:59;;;;;;;8.80;7.00;;;;;;;32.88;21.56;94474.06;5058213;28;20304;-65
2022/06/11 01:30:54;;;;;;;10.27;7.00;;;;;;;32.95;21.24;94472.59;5045706;28;20196;-65
2022/06/11 01:33:57;;;;;;;9.53;6.50;;;;;;;32.65;21.60;94476.31;5062163;28;20202;-64
2022/06/11 01:36:46;;;;;;;7.03;5.77;;;;;;;32.51;21.83;94474.19;5047158;28;20591;-64
2022/06/11 01:39:37;;;;;;;9.83;6.67;;;;;;;32.42;21.58;94469.13;5050224;28;20627;-65
2022/06/11 01:42:39;;;;;;;8.17;7.07;;;;;;;32.49;21.55;94477.09;5057730;28;20261;-64
2022/06/11 01:45:31;;;;;;;9.57;6.77;;;;;;;32.54;21.31;94472.00;5054767;28;20200;-65
2022/06/11 01:48:21;;;;;;;7.17;6.03;;;;;;;32.53;21.31;94471.28;5058563;28;20209;-65
2022/06/11 01:51:26;;;;;;;10.87;6.50;;;;;;;32.40;21.56;94464.06;5052539;28;20205;-64
2022/06/11 01:54:28;;;;;;;9.40;6.33;;;;;;;32.30;21.80;94460.47;5049116;28;20715;-65
2022/06/11 01:57:25;;;;;;;8.63;5.60;;;;;;;32.48;21.91;94469.84;5055543;28;20200;-64
2022/06/11 02:00:20;;;;;;;13.00;6.40;;;;;;;32.33;21.44;94459.75;5056528;28;20292;-64
2022/06/11 02:03:29;;;;;;;13.13;6.97;;;;;;;32.33;22.17;94462.66;5056376;28;20286;-65
2022/06/11 02:06:19;;;;;;;8.80;6.63;;;;;;;32.53;21.50;94458.94;5058885;28;20357;-64
2022/06/11 02:09:31;;;;;;;8.47;6.50;;;;;;;32.73;21.49;94469.78;5063211;28;20206;-64
2022/06/11 02:12:38;;;;;;;10.77;7.03;;;;;;;32.85;21.44;94461.72;5059084;28;20311;-64
2022/06/11 02:15:31;;;;;;;12.20;6.23;;;;;;;32.68;21.70;94462.53;5052191;28;20214;-64
2022/06/11 02:18:18;;;;;;;13.00;7.17;;;;;;;32.87;21.07;94466.81;5053643;28;20201;-64
2022/06/11 02:21:09;;;;;;;9.77;6.10;;;;;;;32.67;21.70;94466.91;5064866;28;20205;-64
2022/06/11 02:24:02;;;;;;;9.87;6.87;;;;;;;32.92;21.37;94468.22;5060403;28;20221;-64
2022/06/11 02:26:50;;;;;;;11.17;6.33;;;;;;;32.91;21.69;94472.59;5058421;28;20260;-64
2022/06/11 02:29:35;;;;;;;11.30;6.93;;;;;;;32.85;21.26;94469.72;5056306;28;20706;-64
2022/06/11 02:32:22;;;;;;;15.67;7.73;;;;;;;32.53;22.13;94474.16;5055321;28;20662;-65
2022/06/11 02:35:10;;;;;;;13.23;7.87;;;;;;;32.67;21.90;94478.50;5056797;28;20568;-65
2022/06/11 02:37:54;;;;;;;9.87;7.33;;;;;;;32.80;21.91;94479.91;5061768;28;20201;-67
2022/06/11 02:40:45;;;;;;;13.60;7.43;;;;;;;32.46;22.40;94472.75;5057955;28;20292;-65
2022/06/11 02:43:29;;;;;;;8.93;6.73;;;;;;;32.36;22.92;94475.69;5055487;28;20579;-64
2022/06/11 02:49:23;;;;;;;16.97;9.00;;;;;;;32.80;22.39;94479.91;5053031;28;20269;-64
2022/06/11 02:52:11;;;;;;;11.57;7.20;;;;;;;32.82;22.27;94482.81;5058734;28;20277;-64
2022/06/11 02:54:56;;;;;;;12.57;7.67;;;;;;;32.94;22.31;94488.56;5060011;28;20590;-62
2022/06/11 02:57:40;;;;;;;14.27;7.30;;;;;;;33.20;22.57;94488.47;5058150;28;20622;-61
2022/06/11 03:00:29;;;;;;;10.50;7.80;;;;;;;33.04;21.99;94490.69;5058723;28;20395;-63
2022/06/11 03:03:14;;;;;;;10.37;7.03;;;;;;;33.02;22.14;94488.50;5056717;28;20793;-61
2022/06/11 03:05:59;;;;;;;11.60;6.23;;;;;;;33.06;21.92;94494.31;5059100;28;20251;-62
2022/06/11 03:08:43;;;;;;;10.87;7.33;;;;;;;33.00;22.08;94503.06;5050522;28;20686;-69
2022/06/11 03:11:27;;;;;;;13.17;7.17;;;;;;;32.86;21.82;94494.41;5053419;28;20202;-73
2022/06/11 03:14:13;;;;;;;10.03;6.70;;;;;;;32.91;21.95;94501.63;5059520;28;20235;-73
2022/06/11 03:16:57;;;;;;;9.00;6.10;;;;;;;32.76;21.63;94497.34;5048912;28;20666;-74
2022/06/11 03:19:41;;;;;;;12.20;6.07;;;;;;;32.67;21.91;94495.91;5058251;28;20213;-68
2022/06/11 03:22:25;;;;;;;17.80;5.87;;;;;;;32.50;21.61;94501.75;5051625;28;20279;-67
2022/06/11 03:25:10;;;;;;;9.90;5.47;;;;;;;32.38;21.88;94507.59;5051724;28;20186;-66
2022/06/11 03:27:54;;;;;;;14.80;4.97;;;;;;;32.30;22.08;94507.59;5050303;28;20221;-65
2022/06/11 03:30:38;;;;;;;9.63;5.40;;;;;;;32.25;21.94;94506.16;5069347;28;20235;-66
2022/06/11 03:33:24;;;;;;;11.30;5.53;;;;;;;32.14;21.89;94510.53;5060149;28;20670;-66
2022/06/11 03:36:11;;;;;;;13.37;5.03;;;;;;;32.26;21.97;94513.41;5055274;28;20332;-67
2022/06/11 03:38:55;;;;;;;10.20;4.87;;;;;;;32.21;22.15;94511.97;5066685;28;20247;-67
2022/06/11 03:41:40;;;;;;;6.90;5.00;;;;;;;32.33;21.69;94511.97;5053173;28;20678;-66
2022/06/11 03:44:24;;;;;;;7.33;5.33;;;;;;;32.18;22.14;94521.41;5046267;28;20277;-66
2022/06/11 03:47:09;;;;;;;11.23;5.17;;;;;;;32.50;21.88;94512.63;5056721;28;20200;-67
2022/06/11 03:49:54;;;;;;;9.33;5.77;;;;;;;32.81;21.52;94516.19;5056279;28;20205;-67
2022/06/11 03:52:38;;;;;;;8.30;6.00;;;;;;;32.71;21.31;94524.94;5057458;28;20225;-68
2022/06/11 03:55:24;;;;;;;10.43;5.57;;;;;;;32.73;21.73;94522.03;5057648;28;20619;-66
2022/06/11 03:58:09;;;;;;;8.00;5.93;;;;;;;32.72;21.90;94532.19;5060601;28;20965;-66
2022/06/11 04:04:00;;;;;;;11.27;6.17;;;;;;;33.38;21.05;94539.19;5052036;28;20274;-67
2022/06/11 04:06:54;;;;;;;10.47;6.47;;;;;;;33.15;21.24;94538.53;5058185;28;20628;-68
2022/06/11 04:09:42;;;;;;;10.40;6.67;;;;;;;33.55;20.88;94549.25;5053470;28;20240;-69
2022/06/11 04:12:27;;;;;;;9.67;7.13;;;;;;;33.84;20.85;94541.81;5062739;28;20196;-67
2022/06/11 04:15:11;;;;;;;7.90;6.33;;;;;;;33.84;21.14;94547.63;5056967;28;20919;-67
2022/06/11 04:17:55;;;;;;;9.07;6.03;;;;;;;33.77;21.09;94537.50;5054564;28;20201;-68
2022/06/11 04:20:39;;;;;;;10.10;6.07;;;;;;;33.98;21.63;94544.63;5059191;28;20219;-69
2022/06/11 04:23:24;;;;;;;9.97;6.10;;;;;;;34.08;20.96;94547.44;5051317;28;20224;-70
2022/06/11 04:26:11;;;;;;;8.80;5.40;;;;;;;34.04;21.44;94538.75;5052796;28;20208;-68
2022/06/11 04:28:56;;;;;;;7.77;5.80;;;;;;;34.47;21.07;94547.84;5064972;28;20262;-67
2022/06/11 04:31:40;;;;;;;9.97;6.07;;;;;;;34.40;21.30;94543.56;5051108;28;20239;-68
2022/06/11 04:34:26;;;;;;;8.83;6.00;;;;;;;34.50;21.30;94548.56;5061696;28;20202;-69
2022/06/11 04:37:13;;;;;;;11.37;5.93;;;;;;;34.81;21.20;94540.97;5061957;28;20290;-70
2022/06/11 04:39:59;;;;;;;7.80;6.10;;;;;;;35.07;21.12;94547.94;5059023;28;20197;-66
2022/06/11 04:42:43;;;;;;;10.43;6.03;;;;;;;35.15;20.84;94553.69;5048745;28;20275;-65
2022/06/11 04:45:27;;;;;;;8.13;5.90;;;;;;;35.11;21.31;94547.91;5055473;28;20247;-64
2022/06/11 04:48:12;;;;;;;6.20;5.57;;;;;;;35.35;21.23;94553.47;5057319;28;20513;-64
2022/06/11 04:50:56;;;;;;;7.07;5.50;;;;;;;35.24;21.80;94549.25;5055100;28;20220;-64
2022/06/11 04:53:42;;;;;;;13.97;5.57;;;;;;;35.39;21.41;94559.22;5054338;28;20240;-64
2022/06/11 04:56:28;;;;;;;7.30;5.87;;;;;;;35.78;20.92;94562.34;5050267;28;20244;-63
2022/06/11 04:59:12;;;;;;;9.60;5.63;;;;;;;36.07;21.37;94569.19;5052959;28;20193;-63
2022/06/11 05:01:57;;;;;;;7.50;5.80;;;;;;;36.04;21.36;94576.56;5054438;28;20564;-63
2022/06/11 05:04:41;;;;;;;6.83;5.57;;;;;;;35.90;21.53;94573.13;5048881;28;20240;-62
2022/06/11 05:07:25;;;;;;;10.97;5.90;;;;;;;36.13;21.33;94570.56;5052588;28;20281;-62
2022/06/11 05:10:12;;;;;;;8.70;5.73;;;;;;;36.70;21.01;94582.06;5051376;28;20247;-70
2022/06/11 05:12:56;;;;;;;8.43;5.33;;;;;;;36.27;21.31;94574.03;5054144;28;20239;-70
2022/06/11 05:15:54;;;;;;;7.70;5.47;;;;;;;36.99;20.73;94577.13;5043203;28;20204;-70
2022/06/11 05:18:38;;;;;;;7.57;5.60;;;;;;;37.02;20.82;94587.31;5048432;28;20201;-70
2022/06/11 05:21:22;;;;;;;8.13;5.93;;;;;;;37.15;20.82;94576.84;5055047;28;20246;-69
2022/06/11 05:24:06;;;;;;;12.73;5.43;;;;;;;37.42;21.25;94582.16;5062140;28;20264;-69
2022/06/11 05:27:14;;;;;;;8.13;5.43;;;;;;;37.41;20.91;94583.63;5056959;28;20205;-70
2022/06/11 05:30:03;;;;;;;7.00;5.40;;;;;;;37.20;20.89;94584.06;5047633;28;20197;-69
2022/06/11 05:32:48;;;;;;;7.37;4.50;;;;;;;37.97;20.50;94581.69;5043707;28;20253;-69
2022/06/11 05:35:33;;;;;;;8.10;5.10;;;;;;;37.76;20.95;94590.22;5052815;28;20224;-69
2022/06/11 05:38:22;;;;;;;7.57;4.90;;;;;;;38.07;20.96;94589.53;5050641;28;20194;-69
2022/06/11 05:41:08;;;;;;;7.80;5.00;;;;;;;38.39;20.44;94588.78;5047969;28;20578;-69
2022/06/11 05:43:51;;;;;;;4.73;4.33;;;;;;;38.03;20.65;94584.50;5051367;28;20220;-69
2022/06/11 05:46:36;;;;;;;5.63;4.30;;;;;;;37.61;21.05;94583.22;5068542;28;20271;-69
2022/06/11 05:49:23;;;;;;;7.00;4.20;;;;;;;38.29;20.33;94583.16;5058102;28;20733;-69
2022/06/11 05:52:16;;;;;;;5.10;3.23;;;;;;;37.35;21.89;94592.53;5050010;28;20248;-69
2022/06/11 05:55:00;;;;;;;5.57;3.10;;;;;;;37.79;21.26;94585.03;5059327;28;20221;-69
2022/06/11 05:57:47;;;;;;;2.90;2.70;;;;;;;36.38;22.04;94589.88;5059824;28;20209;-70
2022/06/11 06:00:32;;;;;;;3.07;2.77;;;;;;;37.71;20.95;94594.72;5050893;28;20929;-70
2022/06/11 06:03:16;;;;;;;5.13;2.90;;;;;;;38.95;20.46;94591.78;5057272;28;20652;-71
2022/06/11 06:06:00;;;;;;;3.37;2.90;;;;;;;38.73;20.28;94590.84;5053453;28;20235;-70
2022/06/11 06:08:44;;;;;;;3.83;2.73;;;;;;;39.63;19.87;94595.72;5053813;28;20236;-70
2022/06/11 06:11:29;;;;;;;2.90;2.47;;;;;;;39.81;19.61;94590.84;5055777;28;20565;-70
2022/06/11 06:14:13;;;;;;;3.20;2.20;;;;;;;38.94;19.68;94599.13;5055150;28;20205;-70
2022/06/11 06:16:57;;;;;;;5.20;2.50;;;;;;;38.30;20.45;94599.97;5047917;28;20218;-70
2022/06/11 06:19:41;;;;;;;3.80;2.07;;;;;;;37.40;21.26;94596.81;5057780;28;20398;-70
2022/06/11 06:22:25;;;;;;;2.47;2.27;;;;;;;37.20;21.60;94595.03;5058910;28;20755;-69
2022/06/11 06:25:13;;;;;;;2.97;2.17;;;;;;;37.22;21.60;94600.81;5066011;28;20200;-69
2022/06/11 06:27:57;;;;;;;5.80;2.23;;;;;;;37.93;20.88;94600.06;5056143;28;20729;-69
2022/06/11 06:30:41;;;;;;;2.60;1.90;;;;;;;38.55;20.74;94594.25;5043869;28;20232;-69
2022/06/11 06:33:30;;;;;;;2.20;2.00;;;;;;;39.05;20.15;94603.22;5053827;28;20247;-69
2022/06/11 06:36:14;;;;;;;7.03;2.20;;;;;;;38.13;20.47;94598.19;5048649;28;20280;-70
2022/06/11 06:38:59;;;;;;;4.17;2.10;;;;;;;39.22;19.35;94604.22;5056021;28;20189;-70
2022/06/11 06:41:43;;;;;;;4.57;2.03;;;;;;;39.88;19.09;94609.69;5056269;28;20285;-70
2022/06/11 06:44:27;;;;;;;2.40;2.17;;;;;;;38.98;19.75;94607.81;5049518;28;20240;-70
2022/06/11 06:47:11;;;;;;;3.23;2.10;;;;;;;37.37;21.14;94612.94;5056497;28;20559;-69
2022/06/11 06:49:55;;;;;;;4.87;1.97;;;;;;;37.95;20.53;94614.66;5057527;28;20197;-70
2022/06/11 06:52:39;;;;;;;3.30;2.07;;;;;;;38.37;20.26;94612.25;5048141;28;20725;-71
2022/06/11 06:55:24;;;;;;;3.40;1.93;;;;;;;38.84;19.99;94611.81;5055365;28;20205;-71
2022/06/11 06:58:08;;;;;;;4.20;1.90;;;;;;;38.82;20.15;94615.50;5058007;28;20259;-72
2022/06/11 07:00:53;;;;;;;3.10;1.53;;;;;;;38.89;19.65;94612.44;5041167;28;20202;-71
2022/06/11 07:03:36;;;;;;;2.90;1.80;;;;;;;39.99;18.64;94622.56;5043018;28;20256;-70
2022/06/11 07:06:21;;;;;;;2.17;1.67;;;;;;;39.20;18.82;94627.72;5063297;28;20244;-69
2022/06/11 07:09:06;;;;;;;3.50;1.70;;;;;;;40.30;18.25;94616.50;5057429;28;20576;-68
2022/06/11 07:11:50;;;;;;;2.15;1.38;;;;;;;39.53;18.33;94616.56;5049351;28;20205;-70
2022/06/11 07:14:34;;;;;;;3.08;1.30;;;;;;;40.61;17.76;94619.16;5055314;28;20205;-70
2022/06/11 07:17:19;;;;;;;1.35;1.25;;;;;;;40.89;17.32;94621.16;5052331;28;20249;-67
2022/06/11 07:20:10;;;;;;;1.50;1.13;;;;;;;42.19;16.57;94613.50;5057188;28;20202;-66
2022/06/11 07:23:06;;;;;;;1.95;1.20;;;;;;;41.66;17.00;94609.63;5057588;28;20267;-65
2022/06/11 07:25:54;;;;;;;1.83;1.00;;;;;;;42.22;17.08;94621.47;5054530;28;20224;-64
2022/06/11 07:28:44;;;;;;;2.15;1.30;;;;;;;42.11;16.78;94610.88;5053665;28;20197;-64
2022/06/11 07:31:30;;;;;;;2.13;1.08;;;;;;;41.11;17.54;94617.47;5054258;28;20197;-64
2022/06/11 07:34:16;;;;;;;1.20;1.10;;;;;;;40.37;18.01;94612.56;5050690;28;20239;-63
2022/06/11 07:37:00;;;;;;;4.43;1.10;;;;;;;43.35;15.68;94616.06;5053395;28;20351;-63
2022/06/11 07:39:45;;;;;;;1.55;1.10;;;;;;;43.20;16.56;94624.13;5059715;28;20189;-63
2022/06/11 07:42:29;;;;;;;2.05;1.13;;;;;;;43.51;15.78;94624.25;5055745;28;20260;-63
2022/06/11 07:45:13;;;;;;;1.27;1.10;;;;;;;42.44;16.10;94619.88;5047978;28;20289;-63
2022/06/11 07:47:57;;;;;;;1.33;1.23;;;;;;;42.66;16.74;94618.97;5058277;28;20205;-64
2022/06/11 07:50:47;;;;;;;1.63;1.02;;;;;;;45.17;14.46;94623.78;5046971;28;20198;-64
2022/06/11 07:53:32;;;;;;;2.10;1.02;;;;;;;43.37;16.38;94615.28;5050258;28;20202;-63
2022/06/11 07:56:17;;;;;;;3.63;1.13;;;;;;;44.98;14.84;94621.00;5055851;28;20220;-63
2022/06/11 07:59:01;;;;;;;1.27;1.08;;;;;;;45.04;14.57;94617.75;5056912;28;20267;-63
2022/06/11 08:01:45;;;;;;;1.67;0.90;;;;;;;46.89;13.67;94623.28;5054361;28;20205;-63
2022/06/11 08:04:29;;;;;;;4.05;1.30;;;;;;;47.18;13.08;94625.31;5052242;28;20225;-63
2022/06/11 08:07:13;;;;;;;1.33;1.08;;;;;;;46.28;13.62;94621.53;5057239;28;20200;-64
2022/06/11 08:09:58;;;;;;;2.35;1.30;;;;;;;46.82;13.54;94622.22;5043051;28;20201;-63
2022/06/11 08:12:42;;;;;;;2.25;1.35;;;;;;;46.73;13.82;94627.22;5052222;28;20205;-62
2022/06/11 08:15:26;;;;;;;3.03;1.95;;;;;;;46.17;13.06;94622.91;5046480;28;20201;-63
2022/06/11 08:18:10;;;;;;;2.17;1.50;;;;;;;46.26;13.11;94623.91;5052061;28;20739;-63
2022/06/11 08:20:54;;;;;;;3.70;2.42;;;;;;;47.21;13.11;94632.56;5053633;28;20570;-63
2022/06/11 08:23:40;;;;;;;1.75;1.33;;;;;;;48.21;12.42;94627.91;5051842;28;20213;-63
2022/06/11 08:26:24;;;;;;;6.88;2.03;;;;;;;47.95;12.38;94633.25;5054920;28;20201;-63
2022/06/11 08:29:08;;;;;;;3.35;1.50;;;;;;;48.34;12.03;94642.72;5065175;28;20250;-64
2022/06/11 08:31:52;;;;;;;2.90;1.30;;;;;;;47.46;12.65;94644.44;5060268;28;20248;-64
2022/06/11 08:34:41;;;;;;;1.85;1.35;;;;;;;49.21;11.47;94634.06;5046098;28;20213;-64
2022/06/11 08:37:26;;;;;;;2.47;1.50;;;;;;;48.64;11.05;94643.75;5054365;28;20193;-64
2022/06/11 08:40:37;;;;;;;2.10;1.50;;;;;;;48.31;10.71;94644.41;5051045;28;20190;-64
2022/06/11 08:43:25;;;;;;;1.77;1.30;;;;;;;48.39;11.27;94643.91;5053995;28;20232;-64
2022/06/11 08:46:14;;;;;;;2.00;1.10;;;;;;;47.54;11.73;94643.22;5059140;28;20247;-64
2022/06/11 08:49:05;;;;;;;4.45;1.35;;;;;;;48.43;11.65;94649.59;5054133;28;20685;-64
2022/06/11 08:52:00;;;;;;;3.83;1.30;;;;;;;46.96;12.68;94639.22;5047535;28;20281;-64
2022/06/11 08:54:46;;;;;;;1.60;1.30;;;;;;;44.89;14.05;94626.63;5054724;28;20197;-64
2022/06/11 08:57:42;;;;;;;1.92;0.90;;;;;;;49.05;11.48;94644.78;5059329;28;20220;-64
2022/06/11 09:00:36;;;;;;;1.33;1.17;;;;;;;48.67;10.91;94639.09;5061966;28;20276;-65
2022/06/11 09:04:02;;;;;;;1.58;1.13;;;;;;;49.84;10.76;94638.69;5053927;28;20232;-65
2022/06/11 09:07:06;;;;;;;8.15;1.25;;;;;;;48.32;12.26;94639.88;5057157;28;20201;-65
2022/06/11 09:10:29;;;;;;;1.60;1.13;;;;;;;50.42;10.94;94637.50;5058003;28;20205;-64
2022/06/11 09:13:38;;;;;;;1.90;1.17;;;;;;;49.06;10.93;94630.59;5052300;28;20198;-65
2022/06/11 09:16:37;;;;;;;2.58;1.30;;;;;;;48.94;10.45;94623.91;5054116;28;20198;-65
2022/06/11 09:19:30;;;;;;;3.00;1.15;;;;;;;49.38;10.24;94625.44;5059822;28;20201;-65
2022/06/11 09:22:37;;;;;;;1.25;1.13;;;;;;;47.67;11.55;94620.88;5048935;28;20257;-65
2022/06/11 09:25:43;;;;;;;1.67;1.02;;;;;;;50.41;9.71;94618.19;5050691;28;20197;-65
2022/06/11 09:29:23;;;;;;;2.28;1.10;;;;;;;49.53;9.70;94613.97;5049241;28;20344;-65
2022/06/11 09:32:07;;;;;;;2.05;0.90;;;;;;;49.78;10.13;94625.66;5051829;28;20360;-65
2022/06/11 09:34:56;;;;;;;2.15;1.05;;;;;;;50.45;9.24;94623.13;5046153;28;20679;-65
2022/06/11 09:38:08;;;;;;;2.05;1.33;;;;;;;50.82;9.07;94627.88;5057884;28;20194;-65
2022/06/11 09:41:32;;;;;;;1.27;1.05;;;;;;;50.95;10.06;94621.69;5059519;28;20568;-65
2022/06/11 09:44:25;;;;;;;2.25;1.08;;;;;;;50.90;8.96;94626.56;5045660;28;20221;-65
2022/06/11 09:47:12;;;;;;;1.08;0.98;;;;;;;51.75;8.93;94626.03;5055504;28;20278;-65
2022/06/11 09:50:21;;;;;;;1.20;0.93;;;;;;;52.50;8.13;94623.81;5054970;28;20220;-66
2022/06/11 09:53:11;;;;;;;1.75;1.05;;;;;;;52.30;9.01;94630.69;5050124;28;20220;-66
2022/06/11 09:56:40;;;;;;;1.10;1.00;;;;;;;50.06;9.20;94616.25;5054989;28;20244;-66
2022/06/11 09:59:44;;;;;;;1.38;1.00;;;;;;;51.24;8.53;94626.94;5019976;28;20444;-67
2022/06/11 10:05:49;;;;;;;1.60;1.00;;;;;;;53.25;7.55;94631.88;5058465;28;20710;-66
2022/06/11 10:08:40;;;;;;;1.90;0.88;;;;;;;53.16;7.72;94628.16;5056721;28;20565;-66
2022/06/11 10:11:28;;;;;;;2.20;0.88;;;;;;;53.29;7.12;94631.53;5047329;28;20734;-66
2022/06/11 10:14:30;;;;;;;4.40;1.00;;;;;;;53.82;7.42;94633.06;5049197;28;20201;-67
2022/06/11 10:17:40;;;;;;;1.63;0.80;;;;;;;51.98;8.50;94622.72;5049233;28;20193;-67
2022/06/11 10:20:30;;;;;;;0.88;0.80;;;;;;;52.26;8.28;94631.03;5052656;28;20245;-66
2022/06/11 10:23:29;;;;;;;1.75;0.98;;;;;;;54.16;6.98;94633.03;5051279;28;20261;-67
2022/06/11 10:26:39;;;;;;;1.10;1.00;;;;;;;53.24;7.78;94628.19;5061500;28;20205;-67
2022/06/11 10:29:40;;;;;;;4.30;1.00;;;;;;;54.43;7.46;94635.16;5058746;28;20197;-68
2022/06/11 10:32:39;;;;;;;1.90;0.90;;;;;;;55.86;6.91;94623.50;5056901;28;20258;-67
2022/06/11 10:35:31;;;;;;;1.80;1.15;;;;;;;50.76;9.22;94618.63;5057527;28;20193;-68
2022/06/11 10:38:37;;;;;;;2.05;1.30;;;;;;;54.25;7.90;94618.03;5054282;28;20661;-67
2022/06/11 10:41:42;;;;;;;1.88;1.13;;;;;;;54.20;8.28;94620.66;5056186;28;20209;-68
2022/06/11 10:44:51;;;;;;;2.05;1.10;;;;;;;55.28;7.46;94619.97;5055454;28;20269;-68
2022/06/11 10:47:39;;;;;;;1.20;0.95;;;;;;;56.38;6.55;94629.06;5053049;28;20745;-69
2022/06/11 10:50:34;;;;;;;1.73;1.00;;;;;;;57.77;5.79;94635.47;5057041;28;20197;-70
2022/06/11 10:53:36;;;;;;;1.20;1.00;;;;;;;54.59;8.35;94614.25;5059214;28;20193;-69
2022/06/11 10:56:32;;;;;;;1.98;1.00;;;;;;;52.86;8.66;94619.41;5057179;28;20609;-69
2022/06/11 10:59:25;;;;;;;3.20;0.90;;;;;;;54.10;7.91;94612.59;5060422;28;20613;-68
2022/06/11 11:02:34;;;;;;;2.67;1.65;;;;;;;52.95;8.81;94625.44;5054968;28;20831;-69
2022/06/11 11:05:20;;;;;;;1.00;1.00;;;;;;;52.96;8.75;94614.88;5048260;28;20233;-69
2022/06/11 11:08:05;;;;;;;1.35;0.90;;;;;;;54.91;7.43;94617.31;5058871;28;20287;-69
2022/06/11 11:10:52;;;;;;;1.88;0.90;;;;;;;55.45;7.41;94623.59;5051655;28;20325;-70
2022/06/11 11:13:45;;;;;;;2.28;1.40;;;;;;;54.49;7.27;94615.88;5050365;28;20221;-70
2022/06/11 11:16:36;;;;;;;1.55;1.02;;;;;;;55.91;7.76;94617.78;5057729;28;20197;-70
2022/06/11 11:19:27;;;;;;;1.35;1.08;;;;;;;54.60;8.47;94606.66;5060927;28;20206;-71
2022/06/11 11:22:19;;;;;;;2.90;0.90;;;;;;;54.77;7.88;94609.59;5052319;28;20205;-70
2022/06/11 11:25:11;;;;;;;2.58;1.15;;;;;;;54.13;8.00;94604.81;5050583;28;20275;-70
2022/06/11 11:27:56;;;;;;;1.20;1.05;;;;;;;54.66;7.03;94612.09;5056942;28;20302;-71
2022/06/11 11:30:40;;;;;;;1.55;0.73;;;;;;;54.78;7.05;94614.03;5049378;28;20220;-70
2022/06/11 11:33:31;;;;;;;4.78;1.70;;;;;;;56.07;6.42;94609.50;5048723;28;20674;-70
2022/06/11 11:36:22;;;;;;;2.67;1.20;;;;;;;56.21;6.60;94608.13;5057609;28;20202;-71
2022/06/11 11:39:13;;;;;;;4.70;2.47;;;;;;;55.51;7.28;94610.28;5047939;28;20197;-70
2022/06/11 11:42:19;;;;;;;1.67;1.08;;;;;;;56.54;5.97;94614.72;5060945;28;20197;-72
2022/06/11 11:45:40;;;;;;;1.70;1.20;;;;;;;55.63;6.80;94603.13;5052370;28;20661;-71
2022/06/11 11:48:24;;;;;;;0.70;0.70;;;;;;;57.62;5.95;94613.69;5061092;28;20272;-70
2022/06/11 11:51:23;;;;;;;1.67;0.98;;;;;;;58.39;5.07;94618.47;5060982;28;20329;-70
2022/06/11 11:54:24;;;;;;;1.10;0.90;;;;;;;53.60;7.10;94602.69;5052062;28;20668;-70
2022/06/11 11:57:15;;;;;;;1.10;0.85;;;;;;;54.34;6.63;94598.41;5046945;28;20273;-71
2022/06/11 12:00:07;;;;;;;1.85;0.80;;;;;;;54.50;7.23;94589.56;5052971;28;20288;-71
2022/06/11 12:02:59;;;;;;;0.93;0.82;;;;;;;57.07;5.22;94604.16;5051430;28;20280;-70
2022/06/11 12:05:51;;;;;;;1.40;0.70;;;;;;;57.84;4.96;94606.06;5050114;28;20620;-71
2022/06/11 12:08:45;;;;;;;0.80;0.70;;;;;;;52.85;6.92;94582.03;5047719;28;20295;-70
2022/06/11 12:11:33;;;;;;;1.30;0.95;;;;;;;54.52;7.24;94586.34;5054390;28;20209;-71
2022/06/11 12:14:18;;;;;;;1.08;0.98;;;;;;;56.24;6.09;94591.28;5056278;28;20693;-71
2022/06/11 12:17:37;;;;;;;2.35;0.80;;;;;;;57.04;5.48;94593.94;5054149;28;20260;-69
2022/06/11 12:20:24;;;;;;;2.47;0.70;;;;;;;56.71;5.42;94591.16;5049699;28;20189;-70
2022/06/11 12:23:30;;;;;;;1.50;0.60;;;;;;;55.62;5.89;94587.38;5049520;28;20229;-70
2022/06/11 12:26:27;;;;;;;1.67;0.80;;;;;;;55.39;6.36;94588.09;5058348;28;20251;-70
2022/06/11 12:29:27;;;;;;;0.77;0.65;;;;;;;58.28;4.83;94594.66;5058939;28;20639;-70
2022/06/11 12:32:19;;;;;;;2.50;0.95;;;;;;;53.57;6.88;94599.16;5052821;28;20192;-71
2022/06/11 12:35:24;;;;;;;1.58;0.70;;;;;;;55.14;6.04;94582.94;5054829;28;20222;-72
2022/06/11 12:38:15;;;;;;;0.85;0.68;;;;;;;57.61;5.28;94591.16;5049022;28;20225;-71
2022/06/11 12:41:14;;;;;;;1.10;0.60;;;;;;;59.29;4.62;94603.50;5056296;28;20308;-70
2022/06/11 12:44:39;;;;;;;0.75;0.57;;;;;;;59.07;4.87;94595.25;5049055;28;20280;-70
2022/06/11 12:47:35;;;;;;;0.73;0.73;;;;;;;57.16;4.82;94595.72;5059739;28;20304;-70
2022/06/11 12:50:35;;;;;;;1.20;1.00;;;;;;;57.44;4.92;94592.84;5059755;28;20195;-71
2022/06/11 12:53:25;;;;;;;0.63;0.60;;;;;;;56.41;4.96;94594.13;5049723;28;20197;-71
2022/06/11 12:56:30;;;;;;;1.63;0.70;;;;;;;56.48;5.25;94591.94;5049688;28;20551;-70
2022/06/11 12:59:42;;;;;;;1.05;0.50;;;;;;;53.10;6.37;94581.41;5057857;28;20213;-71
2022/06/11 13:02:34;;;;;;;0.82;0.45;;;;;;;57.55;4.52;94584.16;5038416;28;20270;-71
2022/06/11 13:05:39;;;;;;;0.70;0.60;;;;;;;57.78;4.18;94599.97;5059338;28;20201;-71
2022/06/11 13:08:25;;;;;;;0.88;0.52;;;;;;;58.99;4.12;94593.09;5055996;28;20189;-71
2022/06/11 13:11:31;;;;;;;0.40;0.40;;;;;;;59.60;3.61;94586.41;5051338;28;20197;-71
2022/06/11 13:14:43;;;;;;;1.10;0.55;;;;;;;59.65;3.61;94587.34;5055905;28;20635;-72
2022/06/11 13:17:36;;;;;;;0.77;0.50;;;;;;;60.14;3.50;94587.94;5050662;28;20324;-71
2022/06/11 13:20:49;;;;;;;0.80;0.50;;;;;;;59.10;3.13;94581.31;5044717;28;20259;-71
2022/06/11 13:23:59;;;;;;;1.30;0.80;;;;;;;58.86;3.95;94583.94;5047726;28;20225;-71
2022/06/11 13:26:56;;;;;;;1.33;0.52;;;;;;;59.27;4.05;94576.50;5054720;28;20753;-71
2022/06/11 13:30:22;;;;;;;0.77;0.50;;;;;;;59.34;3.77;94586.31;5044629;28;20201;-70
2022/06/11 13:33:40;;;;;;;0.60;0.60;;;;;;;59.90;3.10;94570.91;5043592;28;20196;-71
2022/06/11 13:36:40;;;;;;;0.95;0.65;;;;;;;58.71;4.08;94572.00;5045145;28;20197;-71
2022/06/11 13:39:36;;;;;;;0.80;0.55;;;;;;;59.55;4.01;94561.28;5047416;28;20709;-71